sensor_id;sensor_type;location;lat;lon;timestamp;temperature;humidity
22416;DHT22;12204;50.600;4.608;2023-09-08T00:04:14;27.20;63.40
22416;DHT22;12204;50.600;4.608;2023-09-08T00:09:18;27.10;63.30
22416;DHT22;12204;50.600;4.608;2023-09-08T00:14:23;27.10;63.20
22416;DHT22;12204;50.600;4.608;2023-09-08T00:19:26;27.10;63.20
22416;DHT22;12204;50.600;4.608;2023-09-08T00:24:30;27.20;63.20
22416;DHT22;12204;50.600;4.608;2023-09-08T00:29:34;27.10;63.00
22416;DHT22;12204;50.600;4.608;2023-09-08T00:34:40;27.20;63.20
22416;DHT22;12204;50.600;4.608;2023-09-08T00:39:44;27.10;63.20
22416;DHT22;12204;50.600;4.608;2023-09-08T00:44:49;27.10;63.00
22416;DHT22;12204;50.600;4.608;2023-09-08T00:49:52;27.10;62.90
22416;DHT22;12204;50.600;4.608;2023-09-08T00:54:56;27.10;62.70
22416;DHT22;12204;50.600;4.608;2023-09-08T01:00:01;27.10;62.60
22416;DHT22;12204;50.600;4.608;2023-09-08T01:05:07;27.00;62.50
22416;DHT22;12204;50.600;4.608;2023-09-08T01:10:11;27.10;62.50
22416;DHT22;12204;50.600;4.608;2023-09-08T01:15:16;27.00;62.40
22416;DHT22;12204;50.600;4.608;2023-09-08T01:20:22;27.10;62.70
22416;DHT22;12204;50.600;4.608;2023-09-08T01:25:29;27.00;62.40
22416;DHT22;12204;50.600;4.608;2023-09-08T01:30:33;27.00;62.20
22416;DHT22;12204;50.600;4.608;2023-09-08T01:35:39;27.00;62.10
22416;DHT22;12204;50.600;4.608;2023-09-08T01:40:43;27.00;62.10
22416;DHT22;12204;50.600;4.608;2023-09-08T01:45:47;27.00;61.90
22416;DHT22;12204;50.600;4.608;2023-09-08T01:50:50;27.00;62.00
22416;DHT22;12204;50.600;4.608;2023-09-08T01:55:55;27.00;61.80
22416;DHT22;12204;50.600;4.608;2023-09-08T02:00:59;27.00;61.80
22416;DHT22;12204;50.600;4.608;2023-09-08T02:06:09;27.00;61.80
22416;DHT22;12204;50.600;4.608;2023-09-08T02:11:14;27.00;61.80
22416;DHT22;12204;50.600;4.608;2023-09-08T02:16:18;27.00;61.70
22416;DHT22;12204;50.600;4.608;2023-09-08T02:21:25;27.00;61.70
22416;DHT22;12204;50.600;4.608;2023-09-08T02:26:30;27.00;61.30
22416;DHT22;12204;50.600;4.608;2023-09-08T02:31:35;27.00;61.40
22416;DHT22;12204;50.600;4.608;2023-09-08T02:36:41;27.00;61.30
22416;DHT22;12204;50.600;4.608;2023-09-08T02:41:46;26.90;62.10
22416;DHT22;12204;50.600;4.608;2023-09-08T02:46:50;26.90;61.20
22416;DHT22;12204;50.600;4.608;2023-09-08T02:51:54;26.90;61.10
22416;DHT22;12204;50.600;4.608;2023-09-08T02:56:59;26.90;60.90
22416;DHT22;12204;50.600;4.608;2023-09-08T03:02:02;26.90;60.80
22416;DHT22;12204;50.600;4.608;2023-09-08T03:07:06;26.90;61.10
22416;DHT22;12204;50.600;4.608;2023-09-08T03:12:11;26.80;59.70
22416;DHT22;12204;50.600;4.608;2023-09-08T03:17:14;26.80;58.60
22416;DHT22;12204;50.600;4.608;2023-09-08T03:22:18;26.80;58.00
22416;DHT22;12204;50.600;4.608;2023-09-08T03:27:23;26.70;57.90
22416;DHT22;12204;50.600;4.608;2023-09-08T03:32:28;26.60;57.80
22416;DHT22;12204;50.600;4.608;2023-09-08T03:37:33;26.60;57.80
22416;DHT22;12204;50.600;4.608;2023-09-08T03:42:40;26.50;57.80
22416;DHT22;12204;50.600;4.608;2023-09-08T03:47:44;26.50;57.80
22416;DHT22;12204;50.600;4.608;2023-09-08T03:52:48;26.40;57.80
22416;DHT22;12204;50.600;4.608;2023-09-08T03:57:53;26.40;57.80
22416;DHT22;12204;50.600;4.608;2023-09-08T04:02:57;26.40;57.80
22416;DHT22;12204;50.600;4.608;2023-09-08T04:08:00;26.30;57.60
22416;DHT22;12204;50.600;4.608;2023-09-08T04:13:05;26.30;57.70
22416;DHT22;12204;50.600;4.608;2023-09-08T04:18:09;26.30;57.50
22416;DHT22;12204;50.600;4.608;2023-09-08T04:23:12;26.20;57.50
22416;DHT22;12204;50.600;4.608;2023-09-08T04:28:17;26.20;57.60
22416;DHT22;12204;50.600;4.608;2023-09-08T04:33:22;26.20;57.60
22416;DHT22;12204;50.600;4.608;2023-09-08T04:38:26;26.10;57.20
22416;DHT22;12204;50.600;4.608;2023-09-08T04:43:31;26.10;57.10
22416;DHT22;12204;50.600;4.608;2023-09-08T04:48:35;26.00;57.20
22416;DHT22;12204;50.600;4.608;2023-09-08T04:53:42;26.00;57.40
22416;DHT22;12204;50.600;4.608;2023-09-08T04:58:46;25.90;57.50
22416;DHT22;12204;50.600;4.608;2023-09-08T05:03:50;25.90;57.50
22416;DHT22;12204;50.600;4.608;2023-09-08T05:08:54;25.90;57.20
22416;DHT22;12204;50.600;4.608;2023-09-08T05:14:00;25.90;57.30
22416;DHT22;12204;50.600;4.608;2023-09-08T05:19:05;25.80;57.00
22416;DHT22;12204;50.600;4.608;2023-09-08T05:24:10;25.80;57.20
22416;DHT22;12204;50.600;4.608;2023-09-08T05:29:15;25.80;57.40
22416;DHT22;12204;50.600;4.608;2023-09-08T05:34:19;25.80;57.80
22416;DHT22;12204;50.600;4.608;2023-09-08T05:39:23;25.80;58.10
22416;DHT22;12204;50.600;4.608;2023-09-08T05:44:28;25.80;58.30
22416;DHT22;12204;50.600;4.608;2023-09-08T05:49:32;25.80;58.50
22416;DHT22;12204;50.600;4.608;2023-09-08T05:54:38;25.90;58.70
22416;DHT22;12204;50.600;4.608;2023-09-08T05:59:43;25.90;59.10
22416;DHT22;12204;50.600;4.608;2023-09-08T06:04:47;25.90;59.20
22416;DHT22;12204;50.600;4.608;2023-09-08T06:09:51;25.90;59.30
22416;DHT22;12204;50.600;4.608;2023-09-08T06:14:56;25.90;59.40
22416;DHT22;12204;50.600;4.608;2023-09-08T06:19:59;25.90;59.70
22416;DHT22;12204;50.600;4.608;2023-09-08T06:25:04;25.90;60.20
22416;DHT22;12204;50.600;4.608;2023-09-08T06:30:11;26.00;60.30
22416;DHT22;12204;50.600;4.608;2023-09-08T06:35:18;26.00;60.60
22416;DHT22;12204;50.600;4.608;2023-09-08T06:40:21;26.00;61.30
22416;DHT22;12204;50.600;4.608;2023-09-08T06:45:27;25.90;61.10
22416;DHT22;12204;50.600;4.608;2023-09-08T06:50:30;26.00;61.70
22416;DHT22;12204;50.600;4.608;2023-09-08T06:55:34;26.00;62.00
22416;DHT22;12204;50.600;4.608;2023-09-08T07:00:39;25.90;63.50
22416;DHT22;12204;50.600;4.608;2023-09-08T07:05:43;26.00;63.40
22416;DHT22;12204;50.600;4.608;2023-09-08T07:10:52;26.00;64.00
22416;DHT22;12204;50.600;4.608;2023-09-08T07:15:57;26.00;65.30
22416;DHT22;12204;50.600;4.608;2023-09-08T07:21:02;26.00;64.80
22416;DHT22;12204;50.600;4.608;2023-09-08T07:26:06;26.00;65.00
22416;DHT22;12204;50.600;4.608;2023-09-08T07:31:11;26.00;65.20
22416;DHT22;12204;50.600;4.608;2023-09-08T07:36:18;26.00;65.80
22416;DHT22;12204;50.600;4.608;2023-09-08T07:41:22;26.00;65.80
22416;DHT22;12204;50.600;4.608;2023-09-08T07:46:26;26.00;66.30
22416;DHT22;12204;50.600;4.608;2023-09-08T07:51:30;26.00;66.50
22416;DHT22;12204;50.600;4.608;2023-09-08T07:56:34;26.00;67.00
22416;DHT22;12204;50.600;4.608;2023-09-08T08:01:39;26.00;67.10
22416;DHT22;12204;50.600;4.608;2023-09-08T08:06:42;26.00;67.20
22416;DHT22;12204;50.600;4.608;2023-09-08T08:11:46;26.00;67.80
22416;DHT22;12204;50.600;4.608;2023-09-08T08:16:51;26.00;68.30
22416;DHT22;12204;50.600;4.608;2023-09-08T08:21:54;26.00;68.80
22416;DHT22;12204;50.600;4.608;2023-09-08T08:26:59;26.00;69.00
22416;DHT22;12204;50.600;4.608;2023-09-08T08:32:05;26.00;69.80
22416;DHT22;12204;50.600;4.608;2023-09-08T08:37:09;26.00;69.70
22416;DHT22;12204;50.600;4.608;2023-09-08T08:42:15;26.00;70.10
22416;DHT22;12204;50.600;4.608;2023-09-08T08:47:20;26.10;70.60
22416;DHT22;12204;50.600;4.608;2023-09-08T08:52:24;26.30;71.10
22416;DHT22;12204;50.600;4.608;2023-09-08T08:57:28;26.40;70.90
22416;DHT22;12204;50.600;4.608;2023-09-08T09:02:34;26.50;70.60
22416;DHT22;12204;50.600;4.608;2023-09-08T09:07:38;26.50;71.10
22416;DHT22;12204;50.600;4.608;2023-09-08T09:12:42;26.50;71.00
22416;DHT22;12204;50.600;4.608;2023-09-08T09:18:02;26.40;71.40
22416;DHT22;12204;50.600;4.608;2023-09-08T09:23:07;26.40;70.90
22416;DHT22;12204;50.600;4.608;2023-09-08T09:28:12;26.40;70.90
22416;DHT22;12204;50.600;4.608;2023-09-08T09:33:17;26.40;70.60
22416;DHT22;12204;50.600;4.608;2023-09-08T09:38:21;26.40;70.60
22416;DHT22;12204;50.600;4.608;2023-09-08T09:43:29;26.50;70.40
22416;DHT22;12204;50.600;4.608;2023-09-08T09:48:35;26.50;70.70
22416;DHT22;12204;50.600;4.608;2023-09-08T09:53:41;26.50;70.40
22416;DHT22;12204;50.600;4.608;2023-09-08T09:58:47;26.50;70.70
22416;DHT22;12204;50.600;4.608;2023-09-08T10:03:52;26.50;70.90
22416;DHT22;12204;50.600;4.608;2023-09-08T10:08:58;26.50;71.10
22416;DHT22;12204;50.600;4.608;2023-09-08T10:14:04;26.50;71.30
22416;DHT22;12204;50.600;4.608;2023-09-08T10:19:14;26.50;74.00
22416;DHT22;12204;50.600;4.608;2023-09-08T10:24:22;26.50;72.10
22416;DHT22;12204;50.600;4.608;2023-09-08T10:29:30;26.60;71.10
22416;DHT22;12204;50.600;4.608;2023-09-08T10:34:36;26.60;71.10
22416;DHT22;12204;50.600;4.608;2023-09-08T10:39:39;26.60;71.00
22416;DHT22;12204;50.600;4.608;2023-09-08T10:44:44;26.60;71.10
22416;DHT22;12204;50.600;4.608;2023-09-08T10:49:50;26.70;71.60
22416;DHT22;12204;50.600;4.608;2023-09-08T10:54:58;26.70;72.40
22416;DHT22;12204;50.600;4.608;2023-09-08T11:00:04;26.70;72.10
22416;DHT22;12204;50.600;4.608;2023-09-08T11:05:15;26.70;71.70
22416;DHT22;12204;50.600;4.608;2023-09-08T11:10:21;26.70;71.90
22416;DHT22;12204;50.600;4.608;2023-09-08T11:15:26;26.70;73.80
22416;DHT22;12204;50.600;4.608;2023-09-08T11:20:31;26.70;72.60
22416;DHT22;12204;50.600;4.608;2023-09-08T11:25:35;26.70;72.90
22416;DHT22;12204;50.600;4.608;2023-09-08T11:30:39;26.80;72.60
22416;DHT22;12204;50.600;4.608;2023-09-08T11:35:46;26.80;70.40
22416;DHT22;12204;50.600;4.608;2023-09-08T11:40:51;26.80;70.70
22416;DHT22;12204;50.600;4.608;2023-09-08T11:45:55;26.80;71.10
22416;DHT22;12204;50.600;4.608;2023-09-08T11:51:00;26.80;69.90
22416;DHT22;12204;50.600;4.608;2023-09-08T11:56:04;26.80;69.30
22416;DHT22;12204;50.600;4.608;2023-09-08T12:01:08;26.80;68.20
22416;DHT22;12204;50.600;4.608;2023-09-08T12:06:14;26.90;68.20
22416;DHT22;12204;50.600;4.608;2023-09-08T12:11:17;26.90;67.90
22416;DHT22;12204;50.600;4.608;2023-09-08T12:16:21;26.90;67.70
22416;DHT22;12204;50.600;4.608;2023-09-08T12:21:26;26.90;67.10
22416;DHT22;12204;50.600;4.608;2023-09-08T12:26:31;27.00;67.30
22416;DHT22;12204;50.600;4.608;2023-09-08T12:31:34;27.00;67.40
22416;DHT22;12204;50.600;4.608;2023-09-08T12:36:44;27.00;67.30
22416;DHT22;12204;50.600;4.608;2023-09-08T12:41:47;27.00;66.30
22416;DHT22;12204;50.600;4.608;2023-09-08T12:46:50;27.00;65.90
22416;DHT22;12204;50.600;4.608;2023-09-08T12:51:55;27.00;67.00
22416;DHT22;12204;50.600;4.608;2023-09-08T12:56:59;27.10;66.60
22416;DHT22;12204;50.600;4.608;2023-09-08T13:02:04;27.10;67.30
22416;DHT22;12204;50.600;4.608;2023-09-08T13:07:09;27.10;67.10
22416;DHT22;12204;50.600;4.608;2023-09-08T13:12:12;27.10;67.60
22416;DHT22;12204;50.600;4.608;2023-09-08T13:17:16;27.10;67.10
22416;DHT22;12204;50.600;4.608;2023-09-08T13:22:22;27.10;66.80
22416;DHT22;12204;50.600;4.608;2023-09-08T13:27:25;27.20;67.20
22416;DHT22;12204;50.600;4.608;2023-09-08T13:32:29;27.20;66.70
22416;DHT22;12204;50.600;4.608;2023-09-08T13:37:34;27.20;65.90
22416;DHT22;12204;50.600;4.608;2023-09-08T13:42:40;27.20;65.50
22416;DHT22;12204;50.600;4.608;2023-09-08T13:47:43;27.20;65.50
22416;DHT22;12204;50.600;4.608;2023-09-08T13:52:48;27.30;65.80
22416;DHT22;12204;50.600;4.608;2023-09-08T13:57:52;27.30;65.60
22416;DHT22;12204;50.600;4.608;2023-09-08T14:02:57;27.30;65.70
22416;DHT22;12204;50.600;4.608;2023-09-08T14:08:08;27.40;65.20
22416;DHT22;12204;50.600;4.608;2023-09-08T14:13:16;27.50;65.70
22416;DHT22;12204;50.600;4.608;2023-09-08T14:18:20;27.50;65.90
22416;DHT22;12204;50.600;4.608;2023-09-08T14:23:24;27.60;65.90
22416;DHT22;12204;50.600;4.608;2023-09-08T14:28:28;27.60;65.60
22416;DHT22;12204;50.600;4.608;2023-09-08T14:33:33;27.60;65.90
22416;DHT22;12204;50.600;4.608;2023-09-08T14:38:39;27.60;65.90
22416;DHT22;12204;50.600;4.608;2023-09-08T14:43:42;27.60;65.90
22416;DHT22;12204;50.600;4.608;2023-09-08T14:48:47;27.70;66.00
22416;DHT22;12204;50.600;4.608;2023-09-08T14:53:51;27.70;65.90
22416;DHT22;12204;50.600;4.608;2023-09-08T14:58:55;27.70;65.70
22416;DHT22;12204;50.600;4.608;2023-09-08T15:03:58;27.80;65.70
22416;DHT22;12204;50.600;4.608;2023-09-08T15:09:04;27.80;65.40
22416;DHT22;12204;50.600;4.608;2023-09-08T15:14:07;27.80;65.50
22416;DHT22;12204;50.600;4.608;2023-09-08T15:19:11;27.80;65.40
22416;DHT22;12204;50.600;4.608;2023-09-08T15:24:16;27.90;65.00
22416;DHT22;12204;50.600;4.608;2023-09-08T15:29:20;27.90;65.00
22416;DHT22;12204;50.600;4.608;2023-09-08T15:34:23;27.90;65.20
22416;DHT22;12204;50.600;4.608;2023-09-08T15:39:29;27.90;65.20
22416;DHT22;12204;50.600;4.608;2023-09-08T15:44:33;27.90;65.30
22416;DHT22;12204;50.600;4.608;2023-09-08T15:49:36;28.00;65.30
22416;DHT22;12204;50.600;4.608;2023-09-08T15:54:41;28.00;64.80
22416;DHT22;12204;50.600;4.608;2023-09-08T15:59:45;28.10;65.20
22416;DHT22;12204;50.600;4.608;2023-09-08T16:04:48;28.10;65.50
22416;DHT22;12204;50.600;4.608;2023-09-08T16:09:54;28.10;65.70
22416;DHT22;12204;50.600;4.608;2023-09-08T16:14:57;28.10;66.50
22416;DHT22;12204;50.600;4.608;2023-09-08T16:20:01;28.20;67.80
22416;DHT22;12204;50.600;4.608;2023-09-08T16:25:06;28.20;68.70
22416;DHT22;12204;50.600;4.608;2023-09-08T16:30:11;28.30;69.00
22416;DHT22;12204;50.600;4.608;2023-09-08T16:35:15;28.40;69.70
22416;DHT22;12204;50.600;4.608;2023-09-08T16:40:20;28.40;69.60
22416;DHT22;12204;50.600;4.608;2023-09-08T16:45:24;28.40;69.80
22416;DHT22;12204;50.600;4.608;2023-09-08T16:50:28;28.50;70.50
22416;DHT22;12204;50.600;4.608;2023-09-08T16:55:33;28.50;69.90
22416;DHT22;12204;50.600;4.608;2023-09-08T17:00:36;28.50;70.10
22416;DHT22;12204;50.600;4.608;2023-09-08T17:05:40;28.50;70.60
22416;DHT22;12204;50.600;4.608;2023-09-08T17:10:46;28.60;70.60
22416;DHT22;12204;50.600;4.608;2023-09-08T17:15:50;28.60;70.90
22416;DHT22;12204;50.600;4.608;2023-09-08T17:20:53;28.60;70.30
22416;DHT22;12204;50.600;4.608;2023-09-08T17:25:59;28.60;70.00
22416;DHT22;12204;50.600;4.608;2023-09-08T17:31:03;28.60;70.20
22416;DHT22;12204;50.600;4.608;2023-09-08T17:36:07;28.60;70.20
22416;DHT22;12204;50.600;4.608;2023-09-08T17:41:12;28.60;70.90
22416;DHT22;12204;50.600;4.608;2023-09-08T17:46:15;28.60;72.40
22416;DHT22;12204;50.600;4.608;2023-09-08T17:51:19;28.60;73.30
22416;DHT22;12204;50.600;4.608;2023-09-08T17:56:25;28.60;74.20
22416;DHT22;12204;50.600;4.608;2023-09-08T18:01:29;28.60;74.60
22416;DHT22;12204;50.600;4.608;2023-09-08T18:06:50;28.50;74.30
22416;DHT22;12204;50.600;4.608;2023-09-08T18:11:55;28.50;74.30
22416;DHT22;12204;50.600;4.608;2023-09-08T18:17:16;28.50;74.80
22416;DHT22;12204;50.600;4.608;2023-09-08T18:22:40;28.50;75.00
22416;DHT22;12204;50.600;4.608;2023-09-08T18:27:45;28.40;75.20
22416;DHT22;12204;50.600;4.608;2023-09-08T18:32:49;28.50;75.10
22416;DHT22;12204;50.600;4.608;2023-09-08T18:37:52;28.40;74.80
22416;DHT22;12204;50.600;4.608;2023-09-08T18:42:57;28.40;74.50
22416;DHT22;12204;50.600;4.608;2023-09-08T18:48:01;28.40;74.40
22416;DHT22;12204;50.600;4.608;2023-09-08T18:53:05;28.40;74.50
22416;DHT22;12204;50.600;4.608;2023-09-08T18:58:10;28.40;74.20
22416;DHT22;12204;50.600;4.608;2023-09-08T19:03:13;28.30;74.00
22416;DHT22;12204;50.600;4.608;2023-09-08T19:08:17;28.30;73.90
22416;DHT22;12204;50.600;4.608;2023-09-08T19:13:22;28.30;73.60
22416;DHT22;12204;50.600;4.608;2023-09-08T19:18:26;28.30;74.30
22416;DHT22;12204;50.600;4.608;2023-09-08T19:23:30;28.20;73.50
22416;DHT22;12204;50.600;4.608;2023-09-08T19:28:34;28.20;73.20
22416;DHT22;12204;50.600;4.608;2023-09-08T19:33:38;28.20;73.10
22416;DHT22;12204;50.600;4.608;2023-09-08T19:38:42;28.20;73.40
22416;DHT22;12204;50.600;4.608;2023-09-08T19:43:48;28.10;72.80
22416;DHT22;12204;50.600;4.608;2023-09-08T19:48:52;28.10;72.80
22416;DHT22;12204;50.600;4.608;2023-09-08T19:53:56;28.10;73.20
22416;DHT22;12204;50.600;4.608;2023-09-08T19:59:01;28.10;73.40
22416;DHT22;12204;50.600;4.608;2023-09-08T20:04:12;28.10;73.40
22416;DHT22;12204;50.600;4.608;2023-09-08T20:09:16;28.10;72.90
22416;DHT22;12204;50.600;4.608;2023-09-08T20:14:21;28.10;73.30
22416;DHT22;12204;50.600;4.608;2023-09-08T20:19:32;28.00;73.70
22416;DHT22;12204;50.600;4.608;2023-09-08T20:24:36;28.10;74.00
22416;DHT22;12204;50.600;4.608;2023-09-08T20:29:45;28.10;74.00
22416;DHT22;12204;50.600;4.608;2023-09-08T20:34:54;28.00;73.90
22416;DHT22;12204;50.600;4.608;2023-09-08T20:39:57;28.00;73.20
22416;DHT22;12204;50.600;4.608;2023-09-08T20:45:03;28.00;72.90
22416;DHT22;12204;50.600;4.608;2023-09-08T20:50:08;28.00;72.60
22416;DHT22;12204;50.600;4.608;2023-09-08T20:55:12;28.00;72.70
22416;DHT22;12204;50.600;4.608;2023-09-08T21:00:17;28.00;72.50
22416;DHT22;12204;50.600;4.608;2023-09-08T21:05:24;27.90;72.80
22416;DHT22;12204;50.600;4.608;2023-09-08T21:10:28;28.00;72.90
22416;DHT22;12204;50.600;4.608;2023-09-08T21:15:32;27.90;73.20
22416;DHT22;12204;50.600;4.608;2023-09-08T21:20:36;28.00;73.30
22416;DHT22;12204;50.600;4.608;2023-09-08T21:25:40;28.00;71.30
22416;DHT22;12204;50.600;4.608;2023-09-08T21:30:45;27.90;68.30
22416;DHT22;12204;50.600;4.608;2023-09-08T21:35:48;27.90;67.50
22416;DHT22;12204;50.600;4.608;2023-09-08T21:40:52;27.80;67.10
22416;DHT22;12204;50.600;4.608;2023-09-08T21:46:03;27.80;66.70
22416;DHT22;12204;50.600;4.608;2023-09-08T21:51:08;27.80;66.40
22416;DHT22;12204;50.600;4.608;2023-09-08T21:56:11;27.70;66.20
22416;DHT22;12204;50.600;4.608;2023-09-08T22:01:16;27.70;65.80
22416;DHT22;12204;50.600;4.608;2023-09-08T22:06:19;27.70;66.00
22416;DHT22;12204;50.600;4.608;2023-09-08T22:11:23;27.70;66.20
22416;DHT22;12204;50.600;4.608;2023-09-08T22:16:28;27.60;65.90
22416;DHT22;12204;50.600;4.608;2023-09-08T22:21:32;27.50;65.70
22416;DHT22;12204;50.600;4.608;2023-09-08T22:26:35;27.50;65.60
22416;DHT22;12204;50.600;4.608;2023-09-08T22:31:40;27.50;65.50
22416;DHT22;12204;50.600;4.608;2023-09-08T22:36:47;27.40;65.30
22416;DHT22;12204;50.600;4.608;2023-09-08T22:41:53;27.40;65.00
22416;DHT22;12204;50.600;4.608;2023-09-08T22:46:58;27.40;64.60
22416;DHT22;12204;50.600;4.608;2023-09-08T22:52:02;27.30;64.60
22416;DHT22;12204;50.600;4.608;2023-09-08T22:57:06;27.30;64.30
22416;DHT22;12204;50.600;4.608;2023-09-08T23:02:11;27.30;64.50
22416;DHT22;12204;50.600;4.608;2023-09-08T23:07:14;27.20;64.30
22416;DHT22;12204;50.600;4.608;2023-09-08T23:12:18;27.20;64.00
22416;DHT22;12204;50.600;4.608;2023-09-08T23:17:23;27.20;64.00
22416;DHT22;12204;50.600;4.608;2023-09-08T23:22:26;27.20;63.70
22416;DHT22;12204;50.600;4.608;2023-09-08T23:27:29;27.20;63.60
22416;DHT22;12204;50.600;4.608;2023-09-08T23:32:34;27.10;63.80
22416;DHT22;12204;50.600;4.608;2023-09-08T23:37:38;27.10;63.50
22416;DHT22;12204;50.600;4.608;2023-09-08T23:42:41;27.10;63.20
22416;DHT22;12204;50.600;4.608;2023-09-08T23:47:46;27.00;63.40
22416;DHT22;12204;50.600;4.608;2023-09-08T23:52:50;27.00;63.50
22416;DHT22;12204;50.600;4.608;2023-09-08T23:57:53;27.00;63.30
